Time;durP1;ratioP1;P1;durP2;ratioP2;P2;SDS_P1;SDS_P2;PMS_P1;PMS_P2;Temp;Humidity;BMP_temperature;BMP_pressure;BME280_temperature;BME280_humidity;BME280_pressure;Samples;Min_cycle;Max_cycle;Signal;HPM_P1;HPM_P2
2023/06/01 00:00:14;;;;;;;7.27;2.87;;;;;;;16.43;57.15;101287.25;4916881;29;20419;-67
2023/06/01 00:02:45;;;;;;;4.10;2.33;;;;;;;16.32;57.52;101291.59;4915893;29;20998;-68
2023/06/01 00:05:15;;;;;;;3.60;2.83;;;;;;;16.12;58.35;101290.22;4914412;29;20461;-69
2023/06/01 00:07:44;;;;;;;3.60;2.70;;;;;;;16.39;57.75;101291.53;4918534;29;20441;-69
2023/06/01 00:10:13;;;;;;;3.53;2.50;;;;;;;16.10;58.63;101287.69;4913912;29;20509;-68
2023/06/01 00:12:44;;;;;;;10.60;3.03;;;;;;;15.92;59.43;101282.25;4915088;29;20431;-67
2023/06/01 00:15:13;;;;;;;4.10;2.47;;;;;;;15.89;59.75;101286.25;4915596;29;20964;-68
2023/06/01 00:17:42;;;;;;;4.30;1.87;;;;;;;16.03;59.54;101284.19;4915895;29;20552;-68
2023/06/01 00:20:11;;;;;;;1.97;1.77;;;;;;;15.89;59.71;101285.41;4914535;29;20416;-67
2023/06/01 00:22:42;;;;;;;2.70;2.00;;;;;;;15.76;60.47;101289.16;4915794;29;20999;-67
2023/06/01 00:25:12;;;;;;;4.17;3.27;;;;;;;16.24;59.04;101282.91;4916019;29;20519;-68
2023/06/01 00:27:41;;;;;;;5.60;2.40;;;;;;;16.22;59.15;101274.09;4916005;29;20967;-69
2023/06/01 00:30:13;;;;;;;3.90;3.20;;;;;;;16.31;59.12;101281.75;4916737;29;20421;-68
2023/06/01 00:32:42;;;;;;;5.43;2.63;;;;;;;15.98;60.26;101287.63;4917755;29;20435;-69
2023/06/01 00:35:11;;;;;;;5.30;2.80;;;;;;;15.73;61.52;101281.44;4917209;29;20458;-69
2023/06/01 00:37:40;;;;;;;3.70;2.27;;;;;;;15.79;61.42;101280.50;4917732;29;20456;-69
2023/06/01 00:40:10;;;;;;;4.80;2.67;;;;;;;15.78;61.63;101287.00;4916397;29;21035;-70
2023/06/01 00:42:39;;;;;;;4.37;2.33;;;;;;;15.79;61.84;101280.50;4914930;29;20437;-67
2023/06/01 00:45:11;;;;;;;5.40;3.10;;;;;;;15.77;61.75;101282.63;4913299;29;20433;-69
2023/06/01 00:47:42;;;;;;;5.23;2.57;;;;;;;15.71;62.19;101282.69;4915363;29;20433;-68
2023/06/01 00:50:13;;;;;;;7.10;3.60;;;;;;;15.99;61.43;101289.28;4915202;29;20435;-68
2023/06/01 00:52:44;;;;;;;3.70;2.53;;;;;;;15.79;62.27;101282.38;4913018;29;20425;-68
2023/06/01 00:55:14;;;;;;;3.33;2.40;;;;;;;16.03;61.25;101273.28;4911695;29;20467;-68
2023/06/01 00:57:46;;;;;;;6.70;3.10;;;;;;;15.75;62.63;101284.75;4913887;29;20428;-68
2023/06/01 01:00:17;;;;;;;3.57;2.47;;;;;;;15.82;62.09;101280.06;4915442;29;20875;-68
2023/06/01 01:02:49;;;;;;;3.40;2.53;;;;;;;15.74;62.64;101280.34;4914783;29;20443;-69
2023/06/01 01:05:19;;;;;;;4.47;2.60;;;;;;;15.71;62.95;101271.78;4913614;29;20455;-68
2023/06/01 01:07:57;;;;;;;5.67;3.07;;;;;;;15.87;62.65;101276.66;4915770;29;20920;-68
2023/06/01 01:10:32;;;;;;;2.80;2.00;;;;;;;16.09;61.53;101272.38;4913965;29;20442;-67
2023/06/01 01:13:09;;;;;;;3.83;2.33;;;;;;;16.15;61.41;101270.63;4916472;29;20894;-67
2023/06/01 01:15:52;;;;;;;2.83;2.13;;;;;;;16.03;61.95;101268.66;4911320;29;20471;-69
2023/06/01 01:18:27;;;;;;;3.83;3.00;;;;;;;15.98;62.40;101273.97;4914659;29;20992;-69
2023/06/01 01:21:02;;;;;;;6.20;3.07;;;;;;;16.18;61.81;101272.88;4911299;29;20657;-69
2023/06/01 01:24:03;;;;;;;3.80;2.73;;;;;;;15.91;63.32;101270.50;4911187;29;20917;-68
2023/06/01 01:26:52;;;;;;;3.90;2.60;;;;;;;15.50;65.14;101275.75;4911339;29;20505;-68
2023/06/01 01:29:27;;;;;;;9.17;3.07;;;;;;;15.14;67.02;101281.97;4912098;29;20450;-66
2023/06/01 01:31:59;;;;;;;3.83;3.00;;;;;;;15.66;64.67;101277.91;4914685;29;20439;-68
2023/06/01 01:34:29;;;;;;;7.00;3.33;;;;;;;15.62;64.54;101271.25;4915748;29;20492;-69
2023/06/01 01:37:00;;;;;;;5.43;3.17;;;;;;;15.99;63.22;101275.66;4914788;29;20589;-68
2023/06/01 01:39:29;;;;;;;5.13;3.07;;;;;;;15.85;63.79;101274.13;4913098;29;20482;-69
2023/06/01 01:41:58;;;;;;;4.77;3.00;;;;;;;15.77;64.35;101273.63;4914697;29;20432;-68
2023/06/01 01:44:30;;;;;;;4.37;2.67;;;;;;;15.50;65.43;101271.13;4910106;29;20455;-66
2023/06/01 01:47:09;;;;;;;7.53;3.03;;;;;;;15.71;64.59;101274.50;4912614;29;20725;-68
2023/06/01 01:49:43;;;;;;;2.50;2.27;;;;;;;15.69;64.57;101274.72;4913122;29;20429;-66
2023/06/01 01:52:18;;;;;;;5.13;2.60;;;;;;;15.75;64.49;101273.81;4912681;29;20446;-68
2023/06/01 01:54:50;;;;;;;6.57;3.57;;;;;;;15.65;64.77;101268.91;4916111;29;20473;-69
2023/06/01 01:57:20;;;;;;;3.20;2.50;;;;;;;15.25;66.80;101266.78;4913410;29;20998;-67
2023/06/01 01:59:52;;;;;;;5.50;4.00;;;;;;;14.91;68.88;101259.94;4910157;29;20582;-68
2023/06/01 02:02:21;;;;;;;4.17;3.07;;;;;;;14.55;70.18;101256.00;4912770;29;20424;-66
2023/06/01 02:04:50;;;;;;;4.37;2.97;;;;;;;14.27;71.92;101261.78;4909409;29;20505;-68
2023/06/01 02:07:19;;;;;;;2.80;2.40;;;;;;;14.23;73.01;101257.81;4912963;29;20881;-69
2023/06/01 02:09:48;;;;;;;4.93;3.00;;;;;;;14.30;72.82;101258.63;4909618;29;20475;-67
2023/06/01 02:12:17;;;;;;;6.40;2.90;;;;;;;14.24;73.16;101254.03;4914082;29;20461;-67
2023/06/01 02:14:47;;;;;;;3.83;2.47;;;;;;;14.76;70.90;101257.53;4912802;29;20948;-69
2023/06/01 02:17:17;;;;;;;4.33;3.80;;;;;;;15.00;69.67;101264.06;4912554;29;20532;-69
2023/06/01 02:19:46;;;;;;;5.07;3.20;;;;;;;14.91;70.03;101260.75;4913401;29;20814;-69
2023/06/01 02:22:15;;;;;;;4.10;3.07;;;;;;;14.87;70.09;101253.25;4912925;29;20470;-70
2023/06/01 02:24:45;;;;;;;3.17;2.53;;;;;;;15.30;68.32;101253.31;4913974;29;20437;-68
2023/06/01 02:27:17;;;;;;;3.80;2.80;;;;;;;15.28;68.14;101252.69;4912864;29;20449;-69
2023/06/01 02:29:46;;;;;;;5.27;3.10;;;;;;;14.87;70.14;101254.06;4914606;29;20448;-69
2023/06/01 02:32:17;;;;;;;4.83;2.93;;;;;;;15.30;68.52;101253.31;4913935;29;20429;-69
2023/06/01 02:34:46;;;;;;;7.67;3.57;;;;;;;14.43;72.21;101251.44;4913970;29;20465;-68
2023/06/01 02:37:15;;;;;;;4.37;3.23;;;;;;;14.19;74.08;101248.41;4912748;29;20441;-67
2023/06/01 02:39:44;;;;;;;7.27;3.50;;;;;;;14.05;75.20;101251.41;4912487;29;20445;-69
2023/06/01 02:42:13;;;;;;;4.70;3.20;;;;;;;13.95;75.66;101249.16;4913263;29;20441;-68
2023/06/01 02:44:42;;;;;;;6.57;3.83;;;;;;;14.10;75.15;101252.44;4914185;29;20437;-69
2023/06/01 02:47:11;;;;;;;7.00;4.70;;;;;;;14.39;73.63;101244.78;4914099;29;20868;-68
2023/06/01 02:49:41;;;;;;;6.17;4.10;;;;;;;14.26;74.42;101253.84;4914986;29;20426;-68
2023/06/01 02:52:10;;;;;;;3.93;3.40;;;;;;;14.79;71.92;101246.19;4913300;29;20504;-68
2023/06/01 02:54:39;;;;;;;5.37;3.63;;;;;;;14.96;71.04;101243.75;4915195;29;20606;-69
2023/06/01 02:57:28;;;;;;;6.90;3.57;;;;;;;14.90;71.34;101241.91;4912966;29;20432;-67
2023/06/01 03:00:15;;;;;;;6.33;3.43;;;;;;;14.87;71.33;101243.19;4916453;29;20439;-67
2023/06/01 03:02:46;;;;;;;6.43;3.47;;;;;;;14.48;73.33;101241.56;4917930;29;20521;-69
2023/06/01 03:05:17;;;;;;;4.00;3.57;;;;;;;14.10;75.74;101247.00;4918102;29;20461;-69
2023/06/01 03:07:53;;;;;;;11.30;4.73;;;;;;;13.93;76.98;101245.84;4917009;29;20449;-67
2023/06/01 03:10:26;;;;;;;13.37;4.97;;;;;;;13.95;76.87;101249.16;4916763;29;20459;-67
2023/06/01 03:13:08;;;;;;;5.60;4.70;;;;;;;13.81;78.09;101247.53;4916617;29;20419;-67
2023/06/01 03:15:38;;;;;;;6.90;4.63;;;;;;;13.90;77.79;101246.25;4917679;29;20484;-68
2023/06/01 03:18:08;;;;;;;4.33;3.53;;;;;;;13.97;77.32;101238.91;4914340;29;20945;-67
2023/06/01 03:20:39;;;;;;;5.40;4.10;;;;;;;13.80;78.48;101245.84;4923622;29;20537;-68
2023/06/01 03:23:08;;;;;;;5.70;3.80;;;;;;;13.67;79.44;101241.31;4915840;29;20892;-67
2023/06/01 03:25:37;;;;;;;6.73;4.20;;;;;;;13.74;79.29;101252.19;4916284;29;20540;-66
2023/06/01 03:28:06;;;;;;;7.00;4.20;;;;;;;13.43;81.54;101253.72;4909142;29;20544;-67
2023/06/01 03:30:35;;;;;;;5.93;4.73;;;;;;;13.32;82.18;101248.91;4917791;29;20418;-67
2023/06/01 03:33:04;;;;;;;9.43;4.77;;;;;;;13.37;83.12;101251.00;4910204;29;20516;-70
2023/06/01 03:35:33;;;;;;;10.93;4.30;;;;;;;14.00;79.89;101252.06;4924044;29;20457;-70
2023/06/01 03:38:03;;;;;;;8.33;4.47;;;;;;;14.37;77.69;101260.50;4917183;29;20876;-68
2023/06/01 03:40:32;;;;;;;6.50;5.23;;;;;;;14.51;77.54;101262.09;4916507;29;20848;-69
2023/06/01 03:43:02;;;;;;;10.20;5.80;;;;;;;15.18;74.82;101261.38;4919688;29;20424;-68
2023/06/01 03:45:31;;;;;;;10.37;5.57;;;;;;;15.48;72.57;101262.34;4915971;29;20475;-68
2023/06/01 03:48:00;;;;;;;5.70;5.07;;;;;;;16.06;70.00;101260.03;4916409;29;20448;-69
2023/06/01 03:50:29;;;;;;;8.57;6.17;;;;;;;16.34;69.22;101264.06;4915722;29;20509;-68
2023/06/01 03:53:02;;;;;;;10.53;5.37;;;;;;;16.02;69.89;101264.25;4915015;29;20516;-68
2023/06/01 03:55:32;;;;;;;8.50;5.20;;;;;;;15.09;73.31;101262.72;4917833;29;20476;-68
2023/06/01 03:58:07;;;;;;;16.57;6.23;;;;;;;15.17;73.77;101260.53;4912770;29;20412;-67
2023/06/01 04:00:37;;;;;;;6.30;5.67;;;;;;;15.71;71.65;101256.25;4913974;29;21084;-69
2023/06/01 04:03:07;;;;;;;9.20;5.67;;;;;;;16.63;67.91;101248.75;4913910;29;20469;-68
2023/06/01 04:05:37;;;;;;;9.73;6.77;;;;;;;16.76;66.72;101251.28;4915248;29;20476;-68
2023/06/01 04:08:08;;;;;;;8.57;6.03;;;;;;;15.51;71.50;101251.00;4915460;29;20412;-68
2023/06/01 04:10:38;;;;;;;7.40;6.27;;;;;;;15.71;71.02;101253.53;4914716;29;20827;-69
2023/06/01 04:13:07;;;;;;;8.73;6.17;;;;;;;15.96;69.55;101254.28;4912254;29;20424;-67
2023/06/01 04:15:36;;;;;;;7.90;5.50;;;;;;;16.56;67.12;101253.44;4913594;29;20495;-69
2023/06/01 04:18:06;;;;;;;7.37;5.23;;;;;;;16.22;68.69;101253.09;4915036;29;20485;-68
2023/06/01 04:20:54;;;;;;;7.83;5.73;;;;;;;15.27;71.81;101256.47;4913056;29;20483;-68
2023/06/01 04:23:24;;;;;;;7.63;5.70;;;;;;;15.09;73.12;101260.84;4916056;29;20450;-67
2023/06/01 04:25:59;;;;;;;12.17;9.20;;;;;;;14.50;75.87;101266.72;4916657;29;20448;-68
2023/06/01 04:28:30;;;;;;;13.73;7.33;;;;;;;14.22;77.92;101267.06;4915120;29;20987;-67
2023/06/01 04:31:00;;;;;;;15.40;7.83;;;;;;;13.96;79.19;101269.88;4914094;29;20408;-67
2023/06/01 04:33:30;;;;;;;14.27;8.50;;;;;;;13.20;83.23;101266.94;4914415;29;20830;-68
2023/06/01 04:36:00;;;;;;;11.20;8.37;;;;;;;12.57;87.52;101271.03;4916252;29;20998;-68
2023/06/01 04:38:34;;;;;;;12.00;7.87;;;;;;;12.51;89.15;101267.25;4914905;29;20972;-67
2023/06/01 04:41:04;;;;;;;11.30;6.10;;;;;;;12.16;90.69;101279.25;4915117;29;20477;-69
2023/06/01 04:43:34;;;;;;;13.60;9.57;;;;;;;12.09;92.68;101278.41;4916410;29;20646;-68
2023/06/01 04:46:04;;;;;;;15.60;8.60;;;;;;;11.92;93.57;101274.34;4917248;29;20478;-68
2023/06/01 04:48:34;;;;;;;16.53;9.37;;;;;;;11.83;95.16;101270.16;4927141;29;20442;-67
2023/06/01 04:51:05;;;;;;;12.03;10.57;;;;;;;11.99;94.30;101267.09;4920681;29;20831;-67
2023/06/01 04:53:35;;;;;;;9.43;7.77;;;;;;;11.94;94.49;101275.84;4916186;29;20411;-68
2023/06/01 04:56:05;;;;;;;16.17;12.13;;;;;;;12.16;93.81;101273.84;4915052;29;20567;-69
2023/06/01 04:58:34;;;;;;;19.40;10.80;;;;;;;12.29;93.07;101273.91;4931113;29;20446;-68
2023/06/01 05:01:03;;;;;;;13.13;9.70;;;;;;;12.20;93.69;101275.94;4915535;29;20532;-68
2023/06/01 05:03:32;;;;;;;12.73;8.53;;;;;;;11.74;96.21;101270.31;4911950;29;20445;-69
2023/06/01 05:06:01;;;;;;;16.63;11.60;;;;;;;11.70;97.13;101273.59;4916687;29;20479;-69
2023/06/01 05:08:31;;;;;;;12.07;8.93;;;;;;;11.57;97.60;101279.78;4915143;29;20445;-68
2023/06/01 05:11:02;;;;;;;18.13;9.13;;;;;;;11.61;97.82;101275.66;4915217;29;20538;-68
2023/06/01 05:13:32;;;;;;;15.63;11.10;;;;;;;11.67;97.69;101266.69;4914894;29;20541;-68
2023/06/01 05:16:01;;;;;;;16.17;10.70;;;;;;;11.73;97.00;101268.66;4916818;29;20484;-69
2023/06/01 05:18:30;;;;;;;13.73;8.77;;;;;;;12.03;95.28;101268.38;4920059;29;20518;-68
2023/06/01 05:20:59;;;;;;;15.53;9.83;;;;;;;12.27;93.98;101265.13;4915715;29;20487;-68
2023/06/01 05:23:29;;;;;;;12.97;8.73;;;;;;;12.59;91.43;101267.06;4913492;29;20815;-69
2023/06/01 05:26:01;;;;;;;13.53;8.30;;;;;;;12.72;90.07;101268.97;4914897;29;20480;-67
2023/06/01 05:28:36;;;;;;;12.63;9.20;;;;;;;12.60;89.24;101266.03;4913459;29;21021;-70
2023/06/01 05:31:08;;;;;;;12.83;9.00;;;;;;;12.48;88.51;101267.69;4914234;29;20815;-67
2023/06/01 05:33:51;;;;;;;9.00;7.23;;;;;;;12.27;89.14;101267.81;4909867;29;20552;-68
2023/06/01 05:36:21;;;;;;;14.27;10.20;;;;;;;12.36;88.40;101271.19;4913471;29;20492;-68
2023/06/01 05:38:51;;;;;;;16.73;8.47;;;;;;;12.50;87.42;101265.59;4914876;29;20469;-68
2023/06/01 05:41:19;;;;;;;17.37;10.77;;;;;;;12.43;87.81;101274.78;4913672;29;20476;-66
2023/06/01 05:43:51;;;;;;;12.57;8.60;;;;;;;12.43;88.16;101272.06;4919634;29;20459;-68
2023/06/01 05:46:20;;;;;;;10.13;7.60;;;;;;;12.53;86.45;101276.06;4915446;29;20470;-68
2023/06/01 05:48:50;;;;;;;10.77;7.60;;;;;;;12.58;85.82;101283.56;4910719;29;20942;-66
2023/06/01 05:51:19;;;;;;;15.40;7.77;;;;;;;12.47;85.31;101279.59;4913722;29;20488;-67
2023/06/01 05:53:48;;;;;;;10.90;6.77;;;;;;;12.27;86.41;101286.81;4913065;29;20443;-67
2023/06/01 05:56:17;;;;;;;14.10;7.53;;;;;;;12.54;84.97;101279.56;4914039;29;20481;-67
2023/06/01 05:58:50;;;;;;;10.80;7.63;;;;;;;12.69;84.83;101285.66;4914496;29;20865;-67
2023/06/01 06:01:21;;;;;;;9.77;7.03;;;;;;;12.82;83.71;101284.88;4914068;29;20475;-67
2023/06/01 06:03:50;;;;;;;13.53;8.10;;;;;;;13.08;81.88;101293.84;4909735;29;20797;-67
2023/06/01 06:06:19;;;;;;;12.43;7.00;;;;;;;13.37;80.10;101292.63;4914884;29;20464;-68
2023/06/01 06:08:52;;;;;;;10.93;7.50;;;;;;;13.55;78.97;101288.41;4910046;29;20441;-68
2023/06/01 06:11:21;;;;;;;10.43;6.53;;;;;;;13.39;78.59;101279.66;4922677;29;20839;-68
2023/06/01 06:13:50;;;;;;;14.00;7.03;;;;;;;12.98;79.32;101285.28;4911447;29;20433;-70
2023/06/01 06:16:21;;;;;;;11.00;5.97;;;;;;;12.95;80.44;101279.44;4914787;29;20996;-68
2023/06/01 06:18:50;;;;;;;12.00;5.90;;;;;;;13.24;79.27;101283.63;4915067;29;20477;-68
2023/06/01 06:21:19;;;;;;;9.20;5.63;;;;;;;13.05;78.73;101274.41;4915071;29;20980;-70
2023/06/01 06:23:48;;;;;;;10.07;5.50;;;;;;;13.20;79.09;101283.22;4910406;29;20952;-68
2023/06/01 06:26:17;;;;;;;8.53;5.77;;;;;;;13.60;77.70;101272.31;4916025;29;20544;-68
2023/06/01 06:28:45;;;;;;;11.37;6.30;;;;;;;13.94;74.61;101280.16;4915086;29;20409;-69
2023/06/01 06:31:14;;;;;;;16.73;8.60;;;;;;;14.25;73.31;101284.81;4914360;29;20873;-69
2023/06/01 06:33:45;;;;;;;11.33;6.37;;;;;;;14.75;70.87;101277.66;4916587;29;20529;-68
2023/06/01 06:36:14;;;;;;;13.60;6.13;;;;;;;14.68;69.99;101283.13;4920925;29;20501;-67
2023/06/01 06:38:43;;;;;;;8.17;6.27;;;;;;;14.44;70.03;101293.97;4931825;29;20445;-68
2023/06/01 06:41:12;;;;;;;9.60;5.57;;;;;;;14.22;71.08;101288.81;4921674;29;20477;-68
2023/06/01 06:43:41;;;;;;;15.37;6.37;;;;;;;14.01;71.83;101291.84;4920196;29;20822;-68
2023/06/01 06:46:10;;;;;;;8.10;5.60;;;;;;;13.92;71.85;101287.69;4916553;29;20443;-70
2023/06/01 06:48:39;;;;;;;7.50;5.90;;;;;;;14.07;71.59;101284.69;4924124;29;20933;-67
2023/06/01 06:51:09;;;;;;;7.10;5.80;;;;;;;14.13;71.57;101283.84;4916598;29;20937;-66
2023/06/01 06:53:38;;;;;;;14.23;6.10;;;;;;;14.45;70.08;101285.59;4918475;29;20412;-68
2023/06/01 06:56:07;;;;;;;9.87;6.30;;;;;;;14.33;70.11;101287.28;4914377;29;20460;-68
2023/06/01 06:58:36;;;;;;;14.10;5.70;;;;;;;14.22;70.53;101288.81;4915975;29;20532;-68
2023/06/01 07:01:05;;;;;;;14.77;7.10;;;;;;;14.28;69.96;101289.84;4913810;29;20448;-68
2023/06/01 07:03:35;;;;;;;8.53;5.70;;;;;;;14.34;69.35;101275.34;4921813;29;20405;-68
2023/06/01 07:06:04;;;;;;;10.13;7.17;;;;;;;14.26;69.14;101271.00;4916057;29;20499;-69
2023/06/01 07:08:34;;;;;;;6.80;4.87;;;;;;;14.12;70.18;101277.56;4914547;29;20743;-67
2023/06/01 07:11:04;;;;;;;9.60;6.37;;;;;;;14.09;69.92;101277.13;4913147;29;20797;-66
2023/06/01 07:13:33;;;;;;;8.07;5.37;;;;;;;14.49;68.60;101267.75;4912666;29;20456;-67
2023/06/01 07:16:04;;;;;;;7.63;6.37;;;;;;;14.68;68.53;101271.41;4913649;29;20958;-68
2023/06/01 07:18:33;;;;;;;8.10;5.80;;;;;;;15.10;66.60;101270.66;4915551;29;20474;-67
2023/06/01 07:21:02;;;;;;;16.60;8.63;;;;;;;15.46;66.02;101263.63;4916193;29;20794;-67
2023/06/01 07:23:33;;;;;;;9.10;6.80;;;;;;;15.62;64.99;101279.44;4915947;29;20448;-68
2023/06/01 07:26:02;;;;;;;8.37;5.60;;;;;;;16.04;63.87;101278.53;4915275;29;20450;-68
2023/06/01 07:28:32;;;;;;;9.53;6.70;;;;;;;15.75;64.24;101279.28;4918695;29;20548;-68
2023/06/01 07:31:01;;;;;;;11.00;6.43;;;;;;;15.43;65.25;101275.00;4921941;29;20436;-68
2023/06/01 07:33:35;;;;;;;8.80;5.37;;;;;;;15.96;64.03;101276.13;4931126;29;20405;-68
2023/06/01 07:36:06;;;;;;;11.03;5.77;;;;;;;15.91;63.13;101273.22;4921826;29;20533;-69
2023/06/01 07:38:37;;;;;;;8.87;5.40;;;;;;;16.13;62.65;101275.47;4929311;29;20471;-67
2023/06/01 07:41:11;;;;;;;10.23;6.27;;;;;;;16.44;61.88;101267.09;4929976;29;20429;-69
2023/06/01 07:43:42;;;;;;;9.23;5.57;;;;;;;16.49;61.07;101270.78;4927588;29;20488;-71
2023/06/01 07:46:11;;;;;;;12.90;6.37;;;;;;;16.28;60.87;101267.72;4938173;29;20445;-68
2023/06/01 07:48:40;;;;;;;12.63;6.30;;;;;;;16.00;61.70;101273.75;4933563;29;20416;-69
2023/06/01 07:51:09;;;;;;;13.00;6.33;;;;;;;15.34;63.21;101265.44;4931148;29;20449;-68
2023/06/01 07:53:40;;;;;;;6.63;5.30;;;;;;;15.52;63.88;101262.75;4933359;29;20413;-70
2023/06/01 07:56:09;;;;;;;9.87;5.90;;;;;;;15.42;62.98;101262.41;4934732;29;20987;-69
2023/06/01 07:58:38;;;;;;;16.83;5.63;;;;;;;15.18;63.60;101272.28;4929367;29;20511;-69
2023/06/01 08:01:07;;;;;;;10.13;5.50;;;;;;;14.86;64.89;101271.50;4929760;29;20504;-70
2023/06/01 08:03:36;;;;;;;10.60;6.27;;;;;;;14.97;64.64;101262.59;4925483;29;20467;-69
2023/06/01 08:06:07;;;;;;;8.73;5.30;;;;;;;14.96;64.69;101260.91;4936106;29;20455;-69
2023/06/01 08:08:36;;;;;;;7.27;6.00;;;;;;;14.50;66.16;101257.69;4932672;29;20419;-71
2023/06/01 08:11:07;;;;;;;10.37;5.87;;;;;;;14.81;65.96;101257.72;4934238;29;20412;-70
2023/06/01 08:13:36;;;;;;;6.97;6.27;;;;;;;15.04;64.94;101257.94;4934859;29;20438;-70
2023/06/01 08:16:08;;;;;;;9.53;4.83;;;;;;;14.83;64.73;101260.19;4929664;29;20505;-68
2023/06/01 08:18:37;;;;;;;10.40;5.47;;;;;;;14.76;64.35;101257.53;4926860;29;20411;-69
2023/06/01 08:21:08;;;;;;;8.57;5.77;;;;;;;14.79;64.78;101247.03;4925582;29;20437;-69
2023/06/01 08:23:38;;;;;;;8.80;4.87;;;;;;;15.36;63.30;101255.13;4930309;29;20472;-69
2023/06/01 08:26:08;;;;;;;13.77;5.80;;;;;;;15.15;63.15;101249.00;4927421;29;20448;-69
2023/06/01 08:28:39;;;;;;;9.27;4.77;;;;;;;15.13;63.91;101236.69;4932701;29;20470;-68
2023/06/01 08:31:08;;;;;;;9.10;5.60;;;;;;;15.38;63.70;101244.84;4936212;29;20418;-69
2023/06/01 08:33:39;;;;;;;10.10;5.10;;;;;;;15.47;63.89;101243.47;4932946;29;20449;-68
2023/06/01 08:36:08;;;;;;;10.83;6.67;;;;;;;15.69;61.77;101242.00;4932619;29;20499;-68
2023/06/01 08:38:37;;;;;;;10.73;5.67;;;;;;;15.80;61.51;101233.06;4930183;29;20424;-71
2023/06/01 08:41:18;;;;;;;10.73;6.30;;;;;;;15.90;61.06;101232.50;4927134;29;20426;-69
2023/06/01 08:43:54;;;;;;;11.03;7.80;;;;;;;16.45;60.98;101230.50;4933475;29;20501;-68
2023/06/01 08:46:25;;;;;;;7.47;5.30;;;;;;;17.11;58.63;101235.78;4930812;29;20499;-67
2023/06/01 08:48:55;;;;;;;7.97;5.73;;;;;;;16.62;58.78;101233.44;4934395;29;20403;-70
2023/06/01 08:51:25;;;;;;;8.90;6.00;;;;;;;16.50;59.16;101225.19;4938943;29;20434;-71
2023/06/01 08:53:57;;;;;;;6.57;5.10;;;;;;;16.64;58.98;101231.31;4934566;29;20406;-69
2023/06/01 08:56:29;;;;;;;7.90;5.63;;;;;;;16.45;59.21;101227.78;4938232;29;20469;-70
2023/06/01 08:59:00;;;;;;;11.10;5.60;;;;;;;16.13;60.30;101226.31;4930464;29;20467;-71
2023/06/01 09:01:30;;;;;;;7.33;6.07;;;;;;;16.46;59.22;101229.41;4933331;29;20417;-70
2023/06/01 09:03:59;;;;;;;11.03;4.77;;;;;;;16.67;57.71;101226.19;4934160;29;20495;-70
2023/06/01 09:06:28;;;;;;;11.57;5.47;;;;;;;16.84;56.94;101224.47;4931710;29;20456;-70
2023/06/01 09:08:57;;;;;;;14.20;5.43;;;;;;;16.85;56.86;101225.28;4928428;29;20419;-69
2023/06/01 09:11:29;;;;;;;8.17;5.20;;;;;;;16.64;57.90;101229.41;4931800;29;20418;-69
2023/06/01 09:13:58;;;;;;;10.17;5.33;;;;;;;16.68;58.65;101219.69;4932858;29;20440;-70
2023/06/01 09:16:37;;;;;;;8.90;6.70;;;;;;;17.15;57.06;101219.72;4930141;29;20530;-72
2023/06/01 09:19:08;;;;;;;7.67;5.63;;;;;;;17.16;57.13;101222.22;4932910;29;20441;-68
2023/06/01 09:21:37;;;;;;;8.97;5.07;;;;;;;16.70;58.21;101225.72;4939205;29;20388;-69
2023/06/01 09:24:22;;;;;;;15.40;5.90;;;;;;;16.78;59.20;101211.72;4934642;29;20469;-70
2023/06/01 09:26:59;;;;;;;7.30;5.10;;;;;;;17.08;57.41;101210.81;4945000;29;20444;-69
2023/06/01 09:29:34;;;;;;;7.83;4.80;;;;;;;17.25;56.92;101211.75;4931762;29;20424;-69
2023/06/01 09:32:03;;;;;;;8.10;5.60;;;;;;;17.56;55.55;101200.44;4936187;29;20438;-70
2023/06/01 09:34:32;;;;;;;8.40;4.97;;;;;;;17.73;55.34;101206.84;4936723;29;20416;-69
2023/06/01 09:37:07;;;;;;;14.47;6.57;;;;;;;17.73;55.56;101206.84;4917659;29;20431;-69
2023/06/01 09:39:36;;;;;;;11.03;4.93;;;;;;;17.18;56.12;101209.16;4933310;29;20472;-71
2023/06/01 09:42:08;;;;;;;7.90;5.57;;;;;;;17.20;55.94;101189.75;4942640;29;20392;-72
2023/06/01 09:44:38;;;;;;;5.53;4.17;;;;;;;17.08;56.97;101197.16;4937457;29;20480;-69
2023/06/01 09:47:09;;;;;;;11.60;5.33;;;;;;;17.31;56.54;101188.91;4931306;29;20452;-67
2023/06/01 09:49:40;;;;;;;8.90;5.17;;;;;;;17.30;56.36;101196.28;4930308;29;20484;-68
2023/06/01 09:52:16;;;;;;;7.60;6.53;;;;;;;17.65;56.13;101188.06;4928448;29;20419;-67
2023/06/01 09:54:47;;;;;;;9.40;5.63;;;;;;;17.69;53.84;101193.88;4930830;29;20426;-69
2023/06/01 09:57:25;;;;;;;7.07;5.50;;;;;;;17.73;54.04;101195.88;4927055;29;20411;-70
2023/06/01 09:59:54;;;;;;;6.03;4.80;;;;;;;17.77;53.65;101191.59;4930956;29;20436;-68
2023/06/01 10:02:25;;;;;;;7.30;5.70;;;;;;;17.97;53.06;101190.34;4925233;29;20454;-67
2023/06/01 10:04:58;;;;;;;9.87;6.03;;;;;;;17.78;53.59;101190.53;4931177;29;20504;-68
2023/06/01 10:07:29;;;;;;;8.43;6.63;;;;;;;18.09;53.87;101185.66;4931468;29;20429;-68
2023/06/01 10:10:02;;;;;;;7.90;5.40;;;;;;;18.17;53.43;101183.34;4925198;29;20411;-69
2023/06/01 10:12:34;;;;;;;8.47;6.50;;;;;;;17.94;53.94;101186.19;4937092;29;20423;-68
2023/06/01 10:15:07;;;;;;;11.13;6.33;;;;;;;17.83;54.28;101178.84;4931855;29;20437;-70
2023/06/01 10:17:57;;;;;;;10.80;7.03;;;;;;;18.14;52.96;101167.41;4927537;29;20520;-71
2023/06/01 10:20:26;;;;;;;13.03;9.27;;;;;;;18.55;52.40;101171.72;4929775;29;20936;-70
2023/06/01 10:22:55;;;;;;;13.33;8.73;;;;;;;18.64;52.03;101172.97;4924617;29;20420;-72
2023/06/01 10:25:26;;;;;;;10.63;7.53;;;;;;;18.44;52.02;101172.63;4935046;29;20472;-70
2023/06/01 10:28:01;;;;;;;9.30;7.27;;;;;;;18.99;51.09;101160.91;4931039;29;20417;-72
2023/06/01 10:30:31;;;;;;;19.50;8.07;;;;;;;18.95;50.85;101171.56;4930890;29;20754;-68
2023/06/01 10:32:59;;;;;;;12.67;8.90;;;;;;;18.59;51.52;101170.16;4929842;29;20529;-71
2023/06/01 10:35:53;;;;;;;15.00;8.77;;;;;;;18.61;52.14;101170.75;4930146;29;20450;-72
2023/06/01 10:38:28;;;;;;;11.97;9.17;;;;;;;18.98;52.19;101153.78;4932335;29;20449;-71
2023/06/01 10:41:31;;;;;;;13.33;9.60;;;;;;;18.96;50.73;101161.44;4926553;29;20440;-69
2023/06/01 10:44:01;;;;;;;13.27;9.27;;;;;;;19.12;50.04;101155.09;4928222;29;20470;-68
2023/06/01 10:46:41;;;;;;;14.93;8.53;;;;;;;19.40;48.56;101148.63;4931613;29;20473;-69
2023/06/01 10:49:13;;;;;;;11.93;9.50;;;;;;;19.00;49.77;101149.72;4928503;29;20805;-69
2023/06/01 10:51:42;;;;;;;13.90;9.80;;;;;;;18.97;50.30;101146.66;4936886;29;20416;-69
2023/06/01 10:54:27;;;;;;;11.63;10.53;;;;;;;18.33;51.21;101135.16;4932398;29;20450;-68
2023/06/01 10:57:23;;;;;;;13.70;9.00;;;;;;;18.71;49.04;101152.81;4930354;29;20489;-70
2023/06/01 11:00:14;;;;;;;8.77;7.87;;;;;;;18.84;49.21;101141.50;4921275;29;20433;-71
2023/06/01 11:02:48;;;;;;;10.47;9.27;;;;;;;18.82;48.67;101151.91;4928727;29;20420;-68
2023/06/01 11:05:47;;;;;;;11.00;8.97;;;;;;;18.67;49.60;101142.34;4930531;29;20459;-67
2023/06/01 11:08:56;;;;;;;13.17;10.43;;;;;;;18.93;50.50;101138.06;4926001;29;20434;-68
2023/06/01 11:12:00;;;;;;;13.97;9.70;;;;;;;19.30;49.88;101143.00;4912401;29;20458;-67
2023/06/01 11:14:33;;;;;;;16.93;8.57;;;;;;;18.91;49.09;101151.22;4913268;29;20412;-68
2023/06/01 11:17:30;;;;;;;13.57;9.23;;;;;;;18.88;49.53;101138.00;4912907;29;20516;-69
2023/06/01 11:20:10;;;;;;;11.73;10.50;;;;;;;18.99;50.63;101136.25;4908814;29;20412;-67
2023/06/01 11:22:41;;;;;;;12.33;8.83;;;;;;;19.44;49.09;101125.94;4915437;29;20443;-68
2023/06/01 11:25:14;;;;;;;10.73;9.20;;;;;;;19.40;48.55;101130.25;4916488;29;20455;-68
2023/06/01 11:27:45;;;;;;;12.40;8.33;;;;;;;19.60;48.10;101135.19;4916123;29;20416;-66
2023/06/01 11:30:21;;;;;;;14.57;7.80;;;;;;;19.80;46.98;101118.13;4916803;29;20779;-68
2023/06/01 11:32:57;;;;;;;9.20;7.50;;;;;;;20.06;46.86;101125.53;4915174;29;20457;-69
2023/06/01 11:35:26;;;;;;;11.17;8.93;;;;;;;19.70;48.19;101120.75;4915755;29;20592;-68
2023/06/01 11:37:57;;;;;;;17.43;9.80;;;;;;;20.08;47.19;101108.81;4912145;29;20796;-69
2023/06/01 11:40:26;;;;;;;13.07;8.50;;;;;;;20.41;46.72;101107.75;4916054;29;20531;-68
2023/06/01 11:43:02;;;;;;;8.47;7.03;;;;;;;20.66;46.11;101114.31;4914951;29;20676;-69